Time;durP1;ratioP1;P1;durP2;ratioP2;P2;SDS_P1;SDS_P2;PMS_P1;PMS_P2;Temp;Humidity;BMP_temperature;BMP_pressure;BME280_temperature;BME280_humidity;BME280_pressure;Samples;Min_cycle;Max_cycle;Signal;HPM_P1;HPM_P2
2021/01/06 00:00:43;;;;;;;20.85;8.88;;;4.40;99.90;;;;;;4863639;29;20030;-76
2021/01/06 00:03:15;;;;;;;23.65;8.63;;;4.50;99.90;;;;;;4864008;29;20116;-78
2021/01/06 00:05:41;;;;;;;27.77;11.82;;;4.50;99.90;;;;;;4841674;29;20153;-76
2021/01/06 00:08:07;;;;;;;14.77;7.80;;;4.40;99.90;;;;;;4849465;29;20042;-76
2021/01/06 00:10:33;;;;;;;19.88;9.20;;;4.40;99.90;;;;;;4866044;29;20030;-77
2021/01/06 00:12:59;;;;;;;16.77;8.75;;;4.30;99.90;;;;;;4853189;29;20391;-77
2021/01/06 00:15:27;;;;;;;17.70;8.07;;;4.40;99.90;;;;;;4821474;29;20113;-76
2021/01/06 00:17:53;;;;;;;20.58;9.23;;;4.40;99.90;;;;;;4834471;29;20049;-76
2021/01/06 00:20:20;;;;;;;17.45;8.40;;;4.50;99.90;;;;;;4847255;29;20042;-76
2021/01/06 00:22:46;;;;;;;13.80;8.32;;;4.50;99.90;;;;;;4830992;29;20050;-77
2021/01/06 00:25:18;;;;;;;15.30;8.88;;;4.30;99.90;;;;;;4840795;29;20037;-76
2021/01/06 00:27:44;;;;;;;17.08;8.43;;;4.40;99.90;;;;;;4845890;29;20399;-76
2021/01/06 00:30:25;;;;;;;16.75;6.90;;;4.40;99.90;;;;;;4845437;29;20030;-77
2021/01/06 00:32:51;;;;;;;14.15;7.40;;;4.40;99.90;;;;;;4845301;29;20137;-77
2021/01/06 00:35:21;;;;;;;19.08;8.85;;;4.30;99.90;;;;;;4845417;29;20101;-77
2021/01/06 00:37:47;;;;;;;16.85;8.15;;;4.20;99.90;;;;;;4832361;29;20551;-77
2021/01/06 00:40:14;;;;;;;15.13;8.25;;;4.20;99.90;;;;;;4846721;29;20041;-78
2021/01/06 00:42:40;;;;;;;20.25;7.63;;;4.30;99.90;;;;;;5091282;23;20057;-77
2021/01/06 00:45:14;;;;;;;14.77;8.27;;;4.30;99.90;;;;;;4861256;29;20089;-86
2021/01/06 00:47:41;;;;;;;21.08;8.13;;;4.30;99.90;;;;;;4895126;29;20025;-82
2021/01/06 00:50:08;;;;;;;15.02;7.82;;;4.30;99.90;;;;;;4880835;29;20476;-82
2021/01/06 00:52:35;;;;;;;15.73;7.97;;;4.20;99.90;;;;;;4884901;29;20065;-84
2021/01/06 00:55:01;;;;;;;19.13;8.10;;;4.20;99.90;;;;;;4875393;29;20025;-79
2021/01/06 00:57:27;;;;;;;14.77;7.85;;;4.20;99.90;;;;;;4862681;29;20045;-79
2021/01/06 01:00:01;;;;;;;12.18;7.47;;;4.20;99.90;;;;;;4873318;29;20028;-82
2021/01/06 01:02:26;;;;;;;14.45;7.10;;;4.20;99.90;;;;;;4874040;29;20112;-82
2021/01/06 01:04:54;;;;;;;15.88;7.68;;;4.20;99.90;;;;;;4857911;29;20183;-80
2021/01/06 01:07:20;;;;;;;13.20;7.97;;;4.20;99.90;;;;;;4857263;29;20031;-81
2021/01/06 01:09:45;;;;;;;15.77;7.43;;;4.20;99.90;;;;;;4857271;29;20117;-81
2021/01/06 01:12:12;;;;;;;17.67;7.85;;;4.20;99.90;;;;;;4869032;29;20026;-79
2021/01/06 01:14:38;;;;;;;13.02;7.55;;;4.20;99.90;;;;;;4850507;29;20431;-79
2021/01/06 01:17:04;;;;;;;14.07;6.72;;;4.30;99.90;;;;;;4854545;29;20030;-82
2021/01/06 01:19:30;;;;;;;12.27;6.90;;;4.20;99.90;;;;;;4856431;29;20029;-81
2021/01/06 01:21:58;;;;;;;11.77;7.05;;;4.30;99.90;;;;;;4871933;29;20131;-82
2021/01/06 01:24:36;;;;;;;;;;;;;;;;;;;;;
2021/01/06 01:27:06;;;;;;;13.32;6.93;;;4.30;99.90;;;;;;4888510;29;20433;-82
2021/01/06 01:29:31;;;;;;;11.20;6.53;;;4.50;99.90;;;;;;4861084;29;20051;-79
2021/01/06 01:31:57;;;;;;;10.05;6.15;;;4.40;99.90;;;;;;4882247;29;20029;-81
2021/01/06 01:34:27;;;;;;;11.18;6.20;;;4.30;99.90;;;;;;4874107;29;20045;-82
2021/01/06 01:37:02;;;;;;;12.60;5.68;;;4.20;99.90;;;;;;4874529;29;20066;-80
2021/01/06 01:39:54;;;;;;;9.02;5.43;;;4.20;99.90;;;;;;4864063;29;20052;-84
2021/01/06 01:42:25;;;;;;;9.98;5.85;;;4.20;99.90;;;;;;4868234;29;20473;-82
2021/01/06 01:44:59;;;;;;;9.68;5.78;;;4.20;99.90;;;;;;4873373;29;20073;-81
2021/01/06 01:47:40;;;;;;;13.43;6.38;;;4.10;99.90;;;;;;4883539;29;20029;-80
2021/01/06 01:50:06;;;;;;;10.52;5.82;;;4.20;99.90;;;;;;4843073;29;20062;-80
2021/01/06 01:52:40;;;;;;;10.38;6.28;;;4.20;99.90;;;;;;4867255;29;20051;-83
2021/01/06 01:55:08;;;;;;;10.50;5.72;;;4.10;99.90;;;;;;4876186;29;20037;-81
2021/01/06 01:57:38;;;;;;;8.48;5.25;;;4.10;99.90;;;;;;4871475;29;20039;-80
2021/01/06 02:00:17;;;;;;;10.10;5.68;;;4.10;99.90;;;;;;4876609;29;20029;-81
2021/01/06 02:03:14;;;;;;;10.82;5.88;;;4.10;99.90;;;;;;4893118;29;20040;-82
2021/01/06 02:05:57;;;;;;;8.93;5.85;;;4.10;99.90;;;;;;4873905;29;20032;-78
2021/01/06 02:08:40;;;;;;;7.22;4.88;;;4.20;99.90;;;;;;4893176;29;20033;-81
2021/01/06 02:11:16;;;;;;;9.23;4.88;;;4.20;99.90;;;;;;4878937;29;20021;-83
2021/01/06 02:13:58;;;;;;;11.65;6.38;;;4.10;99.90;;;;;;4876270;29;20040;-76
2021/01/06 02:19:38;;;;;;;11.68;5.20;;;4.10;99.90;;;;;;4867621;29;20064;-79
2021/01/06 02:22:06;;;;;;;9.90;4.80;;;4.10;99.90;;;;;;4868829;29;20064;-81
2021/01/06 02:24:34;;;;;;;9.65;5.80;;;4.10;99.90;;;;;;4874574;29;20474;-81
2021/01/06 02:26:59;;;;;;;12.03;5.97;;;4.00;99.90;;;;;;4876062;29;20031;-81
2021/01/06 02:29:25;;;;;;;9.70;5.50;;;4.00;99.90;;;;;;4880138;29;20478;-80
2021/01/06 02:31:52;;;;;;;9.07;5.95;;;3.90;99.90;;;;;;4866385;29;20029;-83
2021/01/06 02:34:20;;;;;;;8.82;5.22;;;3.90;99.90;;;;;;4873190;29;20045;-81
2021/01/06 02:36:46;;;;;;;;;;;4.00;99.90;;;;;;4865177;29;20036;-77
2021/01/06 02:39:14;;;;;;;10.18;5.30;;;4.00;99.90;;;;;;4894116;29;19907;-81
2021/01/06 02:41:46;;;;;;;9.57;5.63;;;4.10;99.90;;;;;;4879986;29;20113;-79
2021/01/06 02:44:11;;;;;;;8.98;4.93;;;3.90;99.90;;;;;;4866778;29;20048;-81
2021/01/06 02:46:39;;;;;;;10.93;5.75;;;3.90;99.90;;;;;;4853571;29;20097;-77
2021/01/06 02:49:07;;;;;;;9.83;6.07;;;3.80;99.90;;;;;;4868431;29;20036;-83
2021/01/06 02:51:36;;;;;;;;;;;3.70;99.90;;;;;;4873840;29;20281;-80
2021/01/06 02:54:05;;;;;;;12.85;5.85;;;3.70;99.90;;;;;;4872471;29;19915;-78
2021/01/06 02:56:36;;;;;;;7.97;5.05;;;3.70;99.90;;;;;;4865823;29;20034;-80
2021/01/06 02:59:05;;;;;;;9.55;5.22;;;3.60;99.90;;;;;;4885684;29;20041;-80
2021/01/06 03:01:35;;;;;;;9.30;5.55;;;3.70;99.90;;;;;;4869566;29;20058;-81
2021/01/06 03:04:01;;;;;;;10.55;5.60;;;3.70;99.90;;;;;;4857297;29;20025;-80
2021/01/06 03:06:56;;;;;;;10.98;5.03;;;3.70;99.90;;;;;;4859959;29;20026;-82
2021/01/06 03:09:27;;;;;;;7.32;4.65;;;3.70;99.90;;;;;;4862263;29;20049;-83
2021/01/06 03:11:53;;;;;;;12.18;6.22;;;3.80;99.90;;;;;;4861577;29;20065;-81
2021/01/06 03:14:25;;;;;;;8.65;5.40;;;3.80;99.90;;;;;;4860433;29;20405;-81
2021/01/06 03:16:53;;;;;;;10.75;5.68;;;3.80;99.90;;;;;;4869936;29;20045;-80
2021/01/06 03:19:21;;;;;;;6.60;4.78;;;3.80;99.90;;;;;;4871479;29;20525;-81
2021/01/06 03:21:49;;;;;;;8.68;5.15;;;3.80;99.90;;;;;;4869337;29;20098;-81
2021/01/06 03:24:21;;;;;;;6.72;4.63;;;3.80;99.90;;;;;;4898295;29;20021;-86
2021/01/06 03:26:50;;;;;;;9.00;5.45;;;3.80;99.90;;;;;;4887383;29;20069;-80
2021/01/06 03:29:17;;;;;;;9.88;6.05;;;3.60;99.90;;;;;;4854789;29;20018;-81
2021/01/06 03:31:46;;;;;;;8.43;5.25;;;3.60;99.90;;;;;;4858488;29;20029;-80
2021/01/06 03:34:22;;;;;;;12.25;6.10;;;3.60;99.90;;;;;;4855938;29;20057;-84
2021/01/06 03:37:22;;;;;;;10.27;5.60;;;3.50;99.90;;;;;;4859834;29;20029;-81
2021/01/06 03:40:00;;;;;;;9.23;5.72;;;3.50;99.90;;;;;;4857605;29;20047;-84
2021/01/06 03:42:28;;;;;;;9.15;4.03;;;3.60;99.90;;;;;;4855564;29;20049;-79
2021/01/06 03:44:54;;;;;;;11.25;6.20;;;3.50;99.90;;;;;;4856448;29;20025;-79
2021/01/06 03:47:27;;;;;;;9.07;5.65;;;3.50;99.90;;;;;;4860017;29;20029;-80
2021/01/06 03:50:00;;;;;;;8.57;5.13;;;3.50;99.90;;;;;;4871959;29;20022;-77
2021/01/06 03:52:44;;;;;;;10.88;5.50;;;3.40;99.90;;;;;;4871263;29;20034;-80
2021/01/06 03:55:41;;;;;;;10.75;6.78;;;3.50;99.90;;;;;;4861325;29;20064;-80
2021/01/06 03:58:17;;;;;;;9.70;5.70;;;3.30;99.90;;;;;;4855207;29;20033;-82
2021/01/06 04:01:10;;;;;;;11.38;6.57;;;3.40;99.90;;;;;;4885879;29;20029;-79
2021/01/06 04:04:09;;;;;;;9.10;5.25;;;3.50;99.90;;;;;;4873682;29;20041;-80
2021/01/06 04:06:37;;;;;;;8.60;4.53;;;3.60;99.90;;;;;;4859441;29;20033;-82
2021/01/06 04:09:15;;;;;;;13.10;5.20;;;3.50;99.90;;;;;;4856079;29;20061;-80
2021/01/06 04:11:41;;;;;;;;;;;3.40;99.90;;;;;;4857476;29;20057;-78
2021/01/06 04:14:06;;;;;;;11.48;5.50;;;3.30;99.90;;;;;;4869232;29;19911;-77
2021/01/06 04:16:32;;;;;;;10.23;5.50;;;3.40;99.90;;;;;;4846408;29;20033;-77
2021/01/06 04:18:58;;;;;;;9.00;5.25;;;3.50;99.90;;;;;;4845015;29;20112;-78
2021/01/06 04:21:29;;;;;;;11.88;6.10;;;3.50;99.90;;;;;;4844314;29;20041;-77
2021/01/06 04:23:55;;;;;;;11.88;5.60;;;3.40;99.90;;;;;;4845519;29;20025;-78
2021/01/06 04:26:22;;;;;;;9.25;5.70;;;3.30;99.90;;;;;;4824606;29;20038;-77
2021/01/06 04:28:48;;;;;;;9.38;5.93;;;3.40;99.90;;;;;;4824829;29;20128;-76
2021/01/06 04:31:19;;;;;;;9.13;5.70;;;3.40;99.90;;;;;;4845852;29;20121;-79
2021/01/06 04:33:50;;;;;;;11.23;4.70;;;3.50;99.90;;;;;;4816970;29;20470;-79
2021/01/06 04:36:22;;;;;;;9.95;6.20;;;3.60;99.90;;;;;;4825670;29;20034;-79
2021/01/06 04:38:52;;;;;;;9.35;5.38;;;3.50;99.90;;;;;;4831108;29;20040;-77
2021/01/06 04:41:23;;;;;;;13.85;5.88;;;3.40;99.90;;;;;;4828636;29;20406;-76
2021/01/06 04:44:26;;;;;;;10.70;5.57;;;3.40;99.90;;;;;;4831338;29;20227;-76
2021/01/06 04:47:16;;;;;;;14.10;5.60;;;3.40;99.90;;;;;;4828353;29;20071;-78
2021/01/06 04:50:01;;;;;;;7.18;4.75;;;3.50;99.90;;;;;;4831400;29;20034;-78
2021/01/06 04:52:44;;;;;;;8.25;5.07;;;3.50;99.90;;;;;;4853880;29;20448;-78
2021/01/06 04:55:49;;;;;;;11.45;5.53;;;3.40;99.90;;;;;;4844714;29;20063;-78
2021/01/06 04:58:45;;;;;;;9.98;5.18;;;3.50;99.90;;;;;;4849209;29;20036;-77
2021/01/06 05:01:38;;;;;;;12.43;5.68;;;3.30;99.90;;;;;;4869236;29;20029;-78
2021/01/06 05:04:24;;;;;;;10.45;5.68;;;3.30;99.90;;;;;;4874190;29;20029;-78
2021/01/06 05:07:00;;;;;;;10.27;4.93;;;3.40;99.90;;;;;;4871969;29;20116;-78
2021/01/06 05:09:37;;;;;;;12.60;5.43;;;3.40;99.90;;;;;;4864241;29;20111;-77
2021/01/06 05:12:03;;;;;;;;;;;3.40;99.90;;;;;;4867808;29;20045;-76
2021/01/06 05:14:39;;;;;;;12.57;5.15;;;3.40;99.90;;;;;;4848197;29;19940;-76
2021/01/06 05:17:06;;;;;;;11.60;5.72;;;3.40;99.90;;;;;;4861901;29;20033;-76
2021/01/06 05:19:32;;;;;;;14.07;5.75;;;3.40;99.90;;;;;;4848103;29;20036;-77
2021/01/06 05:22:00;;;;;;;10.15;5.30;;;3.40;99.90;;;;;;4846566;29;20139;-76
2021/01/06 05:24:42;;;;;;;8.40;5.00;;;3.40;99.90;;;;;;4861947;29;20542;-76
2021/01/06 05:27:13;;;;;;;10.85;4.68;;;3.40;99.90;;;;;;4863627;29;20042;-76
2021/01/06 05:29:40;;;;;;;11.23;5.10;;;3.40;99.90;;;;;;4862395;29;20048;-77
2021/01/06 05:32:14;;;;;;;16.10;6.15;;;3.50;99.90;;;;;;4865027;29;20477;-77
2021/01/06 05:34:42;;;;;;;12.32;5.13;;;3.50;99.90;;;;;;4859623;29;20057;-77
2021/01/06 05:37:15;;;;;;;12.60;5.50;;;3.40;99.90;;;;;;4863175;29;20033;-77
2021/01/06 05:39:43;;;;;;;12.65;5.70;;;3.50;99.90;;;;;;4860315;29;20065;-77
2021/01/06 05:42:20;;;;;;;9.80;4.68;;;3.50;99.90;;;;;;4861334;29;20159;-76
2021/01/06 05:44:56;;;;;;;11.15;5.30;;;3.50;99.90;;;;;;4861210;29;20116;-77
2021/01/06 05:47:32;;;;;;;10.98;5.90;;;3.50;99.90;;;;;;4860771;29;20045;-76
2021/01/06 05:50:04;;;;;;;9.98;5.15;;;3.50;99.90;;;;;;4843862;29;20109;-76
2021/01/06 05:52:32;;;;;;;9.02;5.43;;;3.40;99.90;;;;;;4844388;29;20391;-77
2021/01/06 05:55:04;;;;;;;14.13;6.15;;;3.50;99.90;;;;;;4861440;29;20072;-76
2021/01/06 05:57:33;;;;;;;8.10;4.80;;;3.50;99.90;;;;;;4861661;29;20569;-77
2021/01/06 06:00:02;;;;;;;10.93;5.55;;;3.40;99.90;;;;;;4862521;29;20549;-76
2021/01/06 06:02:52;;;;;;;9.88;5.05;;;3.40;99.90;;;;;;4845878;29;20423;-77
2021/01/06 06:05:39;;;;;;;7.43;5.25;;;3.50;99.90;;;;;;4845753;29;20037;-76
2021/01/06 06:08:08;;;;;;;9.32;4.75;;;3.50;99.90;;;;;;4835619;29;20044;-75
2021/01/06 06:10:37;;;;;;;10.68;5.10;;;3.40;99.90;;;;;;4862708;29;20062;-76
2021/01/06 06:13:11;;;;;;;9.98;4.60;;;3.40;99.90;;;;;;4847050;29;20057;-76
2021/01/06 06:16:04;;;;;;;9.50;4.95;;;3.40;99.90;;;;;;4848321;29;20069;-76
2021/01/06 06:18:51;;;;;;;9.70;5.15;;;3.40;99.90;;;;;;4868210;29;20534;-75
2021/01/06 06:21:23;;;;;;;10.07;4.65;;;3.30;99.90;;;;;;4862298;29;20165;-75
2021/01/06 06:24:18;;;;;;;9.73;4.80;;;3.30;99.90;;;;;;4860822;29;20030;-77
2021/01/06 06:27:06;;;;;;;9.32;5.38;;;3.30;99.90;;;;;;4841021;29;20029;-77
2021/01/06 06:30:15;;;;;;;10.90;5.85;;;3.40;99.90;;;;;;4844357;29;20046;-76
2021/01/06 06:32:44;;;;;;;11.70;5.35;;;3.20;99.90;;;;;;4862870;29;20034;-77
2021/01/06 06:35:30;;;;;;;8.45;4.78;;;3.10;99.90;;;;;;4852359;29;20034;-78
2021/01/06 06:37:59;;;;;;;8.95;5.10;;;3.10;99.90;;;;;;4867456;29;20581;-77
2021/01/06 06:40:28;;;;;;;9.00;4.85;;;3.10;99.90;;;;;;4863859;29;20041;-77
2021/01/06 06:42:55;;;;;;;;;;;3.20;99.90;;;;;;4854713;29;20502;-77
2021/01/06 06:45:41;;;;;;;13.27;5.13;;;3.20;99.90;;;;;;4858778;29;19912;-77
2021/01/06 06:48:13;;;;;;;8.00;5.30;;;3.20;99.90;;;;;;4859634;29;20473;-77
2021/01/06 06:50:54;;;;;;;11.27;5.25;;;3.10;99.90;;;;;;4860691;29;20165;-77
2021/01/06 06:53:38;;;;;;;9.93;5.53;;;3.10;99.90;;;;;;4865980;29;20037;-77
2021/01/06 06:56:07;;;;;;;6.70;4.22;;;3.10;99.90;;;;;;4871448;29;20036;-77
2021/01/06 06:58:50;;;;;;;8.40;4.57;;;3.20;99.90;;;;;;4860767;29;20497;-76
2021/01/06 07:01:31;;;;;;;8.80;5.35;;;3.10;99.90;;;;;;4862505;29;20066;-77
2021/01/06 07:04:27;;;;;;;5.55;4.15;;;3.20;99.90;;;;;;4859757;29;20061;-78
2021/01/06 07:06:59;;;;;;;9.75;4.80;;;3.30;99.90;;;;;;4854170;29;20073;-78
2021/01/06 07:09:33;;;;;;;9.57;5.15;;;3.30;99.90;;;;;;4873275;29;20056;-78
2021/01/06 07:12:08;;;;;;;9.75;5.00;;;3.30;99.90;;;;;;4862598;29;20038;-77
2021/01/06 07:14:53;;;;;;;8.13;4.65;;;3.30;99.90;;;;;;4861562;29;20124;-77
2021/01/06 07:17:41;;;;;;;8.05;5.03;;;3.30;99.90;;;;;;4859077;29;20033;-78
2021/01/06 07:20:11;;;;;;;7.45;4.40;;;3.30;99.90;;;;;;4858059;29;20037;-77
2021/01/06 07:22:45;;;;;;;8.00;4.38;;;3.40;99.90;;;;;;4863577;29;20033;-77
2021/01/06 07:25:23;;;;;;;9.00;4.97;;;3.30;99.90;;;;;;4865379;29;20037;-77
2021/01/06 07:27:53;;;;;;;9.35;5.05;;;3.30;99.90;;;;;;4861142;29;20487;-76
2021/01/06 07:30:48;;;;;;;11.57;5.07;;;3.20;99.90;;;;;;4860121;29;20045;-77
2021/01/06 07:33:39;;;;;;;8.38;5.32;;;3.30;99.90;;;;;;4860210;29;20048;-77
2021/01/06 07:36:31;;;;;;;13.75;4.93;;;3.40;99.90;;;;;;4853112;29;20037;-76
2021/01/06 07:38:57;;;;;;;6.43;4.38;;;3.40;99.90;;;;;;4858102;29;20513;-78
2021/01/06 07:41:25;;;;;;;9.35;5.03;;;3.40;99.90;;;;;;4874645;29;20045;-78
2021/01/06 07:44:18;;;;;;;12.77;5.68;;;3.40;99.90;;;;;;4857281;29;20049;-77
2021/01/06 07:47:03;;;;;;;8.88;5.13;;;3.40;99.90;;;;;;4861294;29;20030;-76
2021/01/06 07:49:59;;;;;;;10.10;5.30;;;3.40;99.90;;;;;;4861164;29;20038;-76
2021/01/06 07:52:52;;;;;;;9.10;4.60;;;3.40;99.90;;;;;;4894257;29;20041;-76
2021/01/06 07:55:24;;;;;;;9.25;4.70;;;3.40;99.90;;;;;;4862282;29;20029;-77
2021/01/06 07:57:55;;;;;;;8.43;5.18;;;3.60;99.90;;;;;;4879508;29;20032;-76
2021/01/06 08:00:30;;;;;;;10.07;5.20;;;3.40;99.90;;;;;;4876882;29;20065;-78
2021/01/06 08:03:05;;;;;;;8.43;4.80;;;3.40;99.90;;;;;;4876901;29;20033;-77
2021/01/06 08:05:34;;;;;;;12.35;5.30;;;3.40;99.90;;;;;;4861181;29;20497;-77
2021/01/06 08:08:20;;;;;;;10.05;4.88;;;3.50;99.90;;;;;;4867664;29;20101;-78
2021/01/06 08:10:51;;;;;;;12.65;5.50;;;3.40;99.90;;;;;;4857687;29;20064;-77
2021/01/06 08:13:25;;;;;;;14.18;5.68;;;3.50;99.90;;;;;;4864035;29;20030;-77
2021/01/06 08:16:13;;;;;;;11.75;5.75;;;3.50;99.90;;;;;;4865430;29;20040;-77
2021/01/06 08:18:58;;;;;;;11.15;5.53;;;3.40;99.90;;;;;;4861076;29;20045;-77
2021/01/06 08:21:30;;;;;;;9.23;4.78;;;3.50;99.90;;;;;;4845092;29;20118;-78
2021/01/06 08:24:11;;;;;;;8.80;5.18;;;3.40;99.90;;;;;;4863079;29;20425;-76
2021/01/06 08:26:46;;;;;;;14.18;5.55;;;3.30;99.90;;;;;;4864650;29;20162;-75
2021/01/06 08:29:18;;;;;;;10.55;4.95;;;3.40;99.90;;;;;;4864479;29;20106;-76
2021/01/06 08:31:47;;;;;;;9.55;4.80;;;3.40;99.90;;;;;;4862911;29;20082;-77
2021/01/06 08:34:31;;;;;;;9.98;5.85;;;3.50;99.90;;;;;;4862838;29;20113;-76
2021/01/06 08:37:06;;;;;;;8.77;4.43;;;3.50;99.90;;;;;;4866847;29;20063;-77
2021/01/06 08:39:36;;;;;;;7.35;4.60;;;3.60;99.90;;;;;;4862788;29;20030;-76
2021/01/06 08:42:18;;;;;;;11.30;5.50;;;3.70;99.90;;;;;;4871485;29;20064;-77
2021/01/06 08:45:05;;;;;;;9.23;5.22;;;3.80;99.90;;;;;;4858103;29;20169;-77
2021/01/06 08:47:37;;;;;;;9.55;4.65;;;3.80;99.90;;;;;;4853374;29;20094;-78
2021/01/06 08:50:30;;;;;;;9.30;5.28;;;3.80;99.90;;;;;;4870253;29;20108;-77
2021/01/06 08:53:00;;;;;;;10.35;4.88;;;3.70;99.90;;;;;;4854827;29;20041;-76
2021/01/06 08:55:33;;;;;;;9.43;5.03;;;3.80;99.90;;;;;;4859432;29;20034;-77
2021/01/06 08:58:10;;;;;;;11.85;5.18;;;3.90;99.90;;;;;;4846335;29;20034;-77
2021/01/06 09:00:42;;;;;;;10.90;5.40;;;3.90;99.90;;;;;;4858208;29;20036;-76
2021/01/06 09:03:11;;;;;;;10.85;5.25;;;3.80;99.90;;;;;;4860185;29;20069;-77
2021/01/06 09:06:12;;;;;;;9.30;5.07;;;3.80;99.90;;;;;;4858117;29;20033;-79
2021/01/06 09:08:38;;;;;;;8.85;4.97;;;3.80;99.90;;;;;;4861073;29;20038;-78
2021/01/06 09:11:13;;;;;;;12.75;5.85;;;3.90;99.90;;;;;;4850969;29;21363;-77
2021/01/06 09:13:53;;;;;;;10.77;5.68;;;3.80;99.90;;;;;;4842418;29;20367;-77
2021/01/06 09:16:25;;;;;;;9.65;5.07;;;3.90;99.90;;;;;;4876700;29;20037;-76
2021/01/06 09:19:30;;;;;;;10.68;6.40;;;3.90;99.90;;;;;;4864217;29;20128;-77
2021/01/06 09:21:59;;;;;;;13.05;6.00;;;3.90;99.90;;;;;;4855849;29;20037;-77
2021/01/06 09:24:32;;;;;;;10.55;5.28;;;3.80;99.90;;;;;;4850076;29;20034;-78
2021/01/06 09:27:05;;;;;;;9.30;5.32;;;3.90;99.90;;;;;;4850641;29;20078;-77
2021/01/06 09:29:38;;;;;;;11.10;6.13;;;4.00;99.90;;;;;;4845355;29;20066;-77
2021/01/06 09:32:18;;;;;;;11.00;5.55;;;4.10;99.90;;;;;;4860762;29;20070;-79
2021/01/06 09:34:47;;;;;;;8.73;5.28;;;4.10;99.90;;;;;;4847361;29;20042;-80
2021/01/06 09:37:20;;;;;;;11.07;5.72;;;4.10;99.90;;;;;;4854514;29;20041;-77
2021/01/06 09:39:47;;;;;;;11.95;5.78;;;4.00;99.90;;;;;;4872028;29;20079;-78
2021/01/06 09:42:18;;;;;;;9.77;5.10;;;4.10;99.90;;;;;;4875028;29;20045;-78
2021/01/06 09:44:45;;;;;;;7.43;4.85;;;4.10;99.90;;;;;;4863155;29;20045;-79
2021/01/06 09:47:36;;;;;;;9.57;4.97;;;4.10;99.90;;;;;;4867264;29;20370;-77
2021/01/06 09:50:17;;;;;;;13.88;5.63;;;4.10;99.90;;;;;;4847405;29;20029;-76
2021/01/06 09:52:46;;;;;;;9.80;5.43;;;4.10;99.90;;;;;;4874740;29;20033;-77
2021/01/06 09:55:19;;;;;;;9.10;4.97;;;4.10;99.90;;;;;;4873199;29;20061;-77
2021/01/06 09:57:55;;;;;;;10.35;5.28;;;4.10;99.90;;;;;;4861869;29;20063;-79
2021/01/06 10:00:49;;;;;;;9.85;5.13;;;4.20;99.90;;;;;;4866365;29;20159;-77
2021/01/06 10:03:16;;;;;;;13.35;5.55;;;4.20;99.90;;;;;;4861264;29;20030;-77
2021/01/06 10:05:48;;;;;;;10.73;6.03;;;4.30;99.90;;;;;;4860954;29;20025;-76
2021/01/06 10:08:40;;;;;;;10.27;5.63;;;4.20;99.90;;;;;;4861426;29;20612;-77
2021/01/06 10:11:27;;;;;;;12.30;5.43;;;4.20;99.90;;;;;;4860975;29;20049;-76
2021/01/06 10:14:11;;;;;;;8.68;5.35;;;4.30;99.90;;;;;;4861013;29;20056;-77
2021/01/06 10:16:45;;;;;;;9.32;5.93;;;4.30;99.90;;;;;;4874973;29;20037;-78
2021/01/06 10:19:28;;;;;;;10.40;5.50;;;4.30;99.90;;;;;;4840192;29;20044;-76
2021/01/06 10:21:58;;;;;;;7.93;4.82;;;4.20;99.90;;;;;;4855453;29;20040;-76
2021/01/06 10:24:46;;;;;;;9.10;5.25;;;4.40;99.90;;;;;;4857423;29;20029;-76
2021/01/06 10:27:35;;;;;;;7.38;3.97;;;4.40;99.90;;;;;;4861853;29;20030;-78
2021/01/06 10:30:14;;;;;;;9.52;5.43;;;4.40;99.90;;;;;;4865390;29;20029;-75
2021/01/06 10:33:20;;;;;;;10.57;4.65;;;4.40;99.90;;;;;;4866475;29;20403;-76
2021/01/06 10:35:58;;;;;;;9.05;5.63;;;4.40;99.90;;;;;;4826411;29;20069;-76
2021/01/06 10:38:37;;;;;;;8.75;4.22;;;4.40;99.90;;;;;;4838267;29;20062;-77
2021/01/06 10:41:22;;;;;;;10.05;4.10;;;4.50;99.90;;;;;;4847419;29;20052;-78
2021/01/06 10:43:50;;;;;;;12.75;4.53;;;4.50;99.90;;;;;;4869655;29;20179;-77
2021/01/06 10:46:39;;;;;;;11.85;4.60;;;4.40;99.90;;;;;;4863201;29;20043;-77
2021/01/06 10:49:30;;;;;;;11.45;4.65;;;4.40;99.90;;;;;;4860498;29;20033;-78
2021/01/06 10:52:08;;;;;;;6.53;4.65;;;4.50;99.90;;;;;;4861192;29;20078;-79
2021/01/06 10:54:39;;;;;;;8.60;4.05;;;4.60;99.90;;;;;;4864221;29;20413;-77
2021/01/06 10:57:27;;;;;;;7.53;4.05;;;4.60;99.90;;;;;;4874005;29;20470;-79
2021/01/06 11:00:11;;;;;;;9.55;4.90;;;4.50;99.90;;;;;;4863622;29;20128;-81
2021/01/06 11:03:05;;;;;;;10.13;4.40;;;4.40;99.90;;;;;;4867186;29;20045;-81
2021/01/06 11:05:54;;;;;;;8.25;4.65;;;4.40;99.90;;;;;;4875845;29;20085;-79
2021/01/06 11:09:02;;;;;;;7.88;4.57;;;4.40;99.90;;;;;;4852498;29;20052;-77
2021/01/06 11:11:36;;;;;;;6.18;4.00;;;4.30;99.90;;;;;;4864173;29;20034;-79
2021/01/06 11:14:21;;;;;;;10.32;4.47;;;4.40;99.90;;;;;;4869996;29;20030;-80
2021/01/06 11:16:56;;;;;;;9.63;3.97;;;4.40;99.90;;;;;;4870587;29;20034;-79
2021/01/06 11:19:40;;;;;;;9.73;3.45;;;4.30;99.90;;;;;;4865965;29;20382;-80
2021/01/06 11:22:17;;;;;;;11.13;3.63;;;4.40;99.90;;;;;;4866806;29;20037;-82
2021/01/06 11:25:00;;;;;;;5.30;3.40;;;4.40;99.90;;;;;;4865566;29;20084;-80
2021/01/06 11:27:55;;;;;;;7.07;4.22;;;4.50;99.90;;;;;;4864047;29;20470;-80
2021/01/06 11:30:26;;;;;;;12.20;4.18;;;4.60;99.90;;;;;;4859496;29;20041;-83
2021/01/06 11:33:20;;;;;;;8.40;3.55;;;4.70;99.90;;;;;;4879664;29;20022;-84
2021/01/06 11:35:48;;;;;;;10.02;3.80;;;4.70;99.90;;;;;;4861692;29;20119;-81
2021/01/06 11:38:39;;;;;;;7.88;3.85;;;4.70;99.90;;;;;;4853722;29;20470;-79
2021/01/06 11:41:26;;;;;;;6.50;3.35;;;4.70;99.90;;;;;;4852801;29;20444;-78
2021/01/06 11:44:17;;;;;;;8.82;3.55;;;4.80;99.90;;;;;;4869203;29;20061;-77
2021/01/06 11:46:48;;;;;;;6.07;4.00;;;4.80;99.90;;;;;;4876078;29;20486;-78
2021/01/06 11:49:18;;;;;;;6.50;3.28;;;4.90;99.90;;;;;;4861835;29;20143;-78
2021/01/06 11:52:05;;;;;;;6.47;3.40;;;4.90;99.90;;;;;;4857332;29;20029;-77
2021/01/06 11:54:43;;;;;;;5.82;3.25;;;5.00;99.90;;;;;;4861428;29;20029;-78
2021/01/06 11:57:30;;;;;;;6.65;3.42;;;4.90;99.90;;;;;;4865121;29;20054;-81
2021/01/06 12:00:11;;;;;;;10.07;3.72;;;4.90;99.90;;;;;;4869550;29;20030;-79
2021/01/06 12:03:08;;;;;;;10.32;3.45;;;4.90;99.90;;;;;;4860082;29;20029;-79
2021/01/06 12:05:54;;;;;;;6.57;3.13;;;4.90;99.90;;;;;;4881837;29;20541;-78
2021/01/06 12:08:32;;;;;;;4.22;2.83;;;4.90;99.90;;;;;;4868359;29;20025;-79
2021/01/06 12:11:18;;;;;;;4.43;3.00;;;4.90;99.90;;;;;;4877047;29;20070;-77
2021/01/06 12:14:11;;;;;;;5.55;2.60;;;4.90;99.90;;;;;;4868230;29;20093;-78
2021/01/06 12:16:58;;;;;;;3.75;2.80;;;4.80;99.90;;;;;;4862341;29;20029;-79
2021/01/06 12:19:56;;;;;;;6.05;3.03;;;4.70;99.90;;;;;;4870769;29;20033;-79
2021/01/06 12:22:23;;;;;;;4.55;2.45;;;4.60;99.90;;;;;;4859324;29;20052;-80
2021/01/06 12:25:20;;;;;;;5.25;3.22;;;4.70;99.90;;;;;;4855381;29;20424;-81
2021/01/06 12:28:14;;;;;;;4.50;2.58;;;4.80;99.90;;;;;;4858123;29;20072;-80
2021/01/06 12:30:45;;;;;;;3.75;2.58;;;4.70;99.90;;;;;;4859995;29;20045;-80
2021/01/06 12:33:25;;;;;;;12.85;3.70;;;4.70;99.90;;;;;;4848812;29;20475;-79
2021/01/06 12:36:15;;;;;;;4.32;2.83;;;4.70;99.90;;;;;;4857655;29;20466;-79
2021/01/06 12:38:42;;;;;;;6.38;2.90;;;4.60;99.90;;;;;;4861894;29;20094;-80
2021/01/06 12:41:20;;;;;;;5.82;2.92;;;4.50;99.90;;;;;;4858365;29;20124;-78
2021/01/06 12:43:58;;;;;;;7.35;3.05;;;4.60;99.90;;;;;;4847762;29;20061;-80
2021/01/06 12:46:27;;;;;;;;;;;4.60;99.90;;;;;;4863339;29;20022;-80
2021/01/06 12:49:13;;;;;;;6.53;2.67;;;4.60;99.90;;;;;;4843917;29;19912;-78
2021/01/06 12:52:01;;;;;;;6.20;3.10;;;4.60;99.90;;;;;;4861304;29;20033;-81
2021/01/06 12:54:38;;;;;;;16.55;4.28;;;4.70;99.90;;;;;;4848921;29;20047;-81
2021/01/06 12:57:20;;;;;;;6.43;3.70;;;4.70;99.90;;;;;;4877664;29;20043;-81
2021/01/06 12:59:56;;;;;;;9.57;2.70;;;4.70;99.90;;;;;;4870630;29;20105;-82
2021/01/06 13:02:35;;;;;;;7.78;3.10;;;4.70;99.90;;;;;;4881912;29;20106;-80
2021/01/06 13:05:26;;;;;;;4.30;2.90;;;4.70;99.90;;;;;;4882339;29;20034;-81
2021/01/06 13:07:58;;;;;;;5.68;3.00;;;4.80;99.90;;;;;;4864472;29;20059;-82
2021/01/06 13:10:39;;;;;;;10.75;2.35;;;4.80;99.90;;;;;;4864896;29;20529;-82
2021/01/06 13:13:30;;;;;;;14.73;3.40;;;4.80;99.90;;;;;;4860346;29;20458;-80
2021/01/06 13:16:16;;;;;;;7.38;2.85;;;4.80;99.90;;;;;;4873420;29;20109;-79
2021/01/06 13:18:48;;;;;;;8.27;2.92;;;4.80;99.90;;;;;;4858039;29;20029;-80
2021/01/06 13:21:56;;;;;;;7.85;3.28;;;4.80;99.90;;;;;;4856426;29;20042;-79
2021/01/06 13:24:28;;;;;;;11.05;3.35;;;4.80;99.90;;;;;;4854872;29;20038;-78
2021/01/06 13:27:05;;;;;;;5.07;2.72;;;4.80;99.90;;;;;;4858995;29;20025;-80
2021/01/06 13:29:37;;;;;;;6.38;2.40;;;4.90;99.90;;;;;;4860047;29;20116;-79
2021/01/06 13:32:13;;;;;;;4.10;2.65;;;4.90;99.90;;;;;;4854340;29;20029;-80
2021/01/06 13:34:51;;;;;;;6.18;3.17;;;4.90;99.90;;;;;;4862945;29;20426;-82
2021/01/06 13:37:19;;;;;;;9.93;3.55;;;4.90;99.90;;;;;;4863307;29;20507;-81
2021/01/06 13:40:05;;;;;;;7.35;2.92;;;4.70;99.90;;;;;;4863517;29;20026;-80
2021/01/06 13:42:35;;;;;;;9.23;3.30;;;4.60;99.90;;;;;;4875043;29;20036;-81
2021/01/06 13:45:10;;;;;;;5.45;2.55;;;4.60;99.90;;;;;;4870809;29;20565;-81
2021/01/06 13:47:57;;;;;;;7.95;2.45;;;4.60;99.90;;;;;;4868032;29;20514;-79